Waianae, Hawaii
Current Conditions -  °F | °C
As of 3:58 PM on Wednesday 22 Oct 2014 (Local Time) from PHHI Reporting Station
Overcast Overcast  
Wind Chill: 76°   Ceiling: 2000
Heat Index: 76°   Visibility: 10mi
Dew Point: 73°   Wind: 3mph
Humidity: 92%   Direction: 360°N
Pressure: 29.98"   Gusts: NA
Location:  21.45°N, 158.19°W
Report Text: PHHI 230158Z 36003KT 10SM BKN020 OVC035 24/23 A2998 RMK AO2A RAE0121DZB0105E0110 SLP143 P0001 T02420229
Loading
Personal Weather Stations






























Interactive Weather Map
Tropical Storm Tracking
New forecast layout! Learn more

10-Day Weather Forecast

Advertisements
Track Severe Weather on mobile